createdAt,value
2018-12-31T00:00:38.552Z,2.20
2018-12-31T00:01:38.508Z,2.40
2018-12-31T00:02:38.463Z,2.40
2018-12-31T00:03:38.418Z,2.30
2018-12-31T00:04:38.378Z,2.30
2018-12-31T00:05:38.334Z,2.40
2018-12-31T00:06:38.305Z,2.10
2018-12-31T00:07:38.251Z,2.20
2018-12-31T00:08:38.205Z,2.20
2018-12-31T00:09:38.164Z,2.40
2018-12-31T00:10:38.123Z,2.40
2018-12-31T00:11:38.073Z,2.30
2018-12-31T00:12:38.029Z,2.40
2018-12-31T00:13:37.986Z,2.30
2018-12-31T00:14:37.977Z,2.00
2018-12-31T00:15:37.900Z,2.10
2018-12-31T00:16:37.890Z,2.30
2018-12-31T00:17:37.815Z,2.10
2018-12-31T00:18:37.768Z,2.00
2018-12-31T00:19:37.726Z,2.20
2018-12-31T00:20:37.690Z,2.30
2018-12-31T00:21:37.639Z,2.40
2018-12-31T00:22:37.602Z,2.10
2018-12-31T00:23:37.557Z,2.20
2018-12-31T00:24:37.515Z,2.00
2018-12-31T00:25:37.467Z,2.30
2018-12-31T00:26:37.431Z,2.30
2018-12-31T00:27:37.380Z,2.40
2018-12-31T00:28:37.347Z,2.30
2018-12-31T00:29:37.295Z,2.10
2018-12-31T00:30:37.253Z,2.10
2018-12-31T00:31:37.207Z,2.10
2018-12-31T00:32:37.165Z,2.20
2018-12-31T00:33:37.117Z,2.00
2018-12-31T00:34:37.086Z,2.20
2018-12-31T00:35:37.032Z,2.10
2018-12-31T00:36:36.997Z,2.30
2018-12-31T00:37:36.944Z,2.00
2018-12-31T00:38:36.898Z,2.10
2018-12-31T00:39:36.857Z,2.30
2018-12-31T00:40:36.820Z,1.90
2018-12-31T00:41:36.771Z,2.20
2018-12-31T00:42:36.731Z,2.20
2018-12-31T00:43:36.683Z,2.00
2018-12-31T00:44:36.640Z,2.20
2018-12-31T00:45:36.599Z,2.10
2018-12-31T00:46:36.553Z,2.00
2018-12-31T00:47:36.510Z,2.10
2018-12-31T00:48:36.465Z,2.00
2018-12-31T00:49:36.422Z,2.20
2018-12-31T00:50:36.380Z,2.20
2018-12-31T00:51:36.337Z,2.40
2018-12-31T00:52:36.292Z,2.10
2018-12-31T00:53:36.253Z,2.00
2018-12-31T00:54:36.205Z,2.20
2018-12-31T00:55:36.162Z,2.10
2018-12-31T00:56:36.117Z,2.20
2018-12-31T00:57:36.076Z,2.20
2018-12-31T00:58:36.031Z,2.10
2018-12-31T00:59:35.987Z,2.10
2018-12-31T01:00:35.972Z,2.40
2018-12-31T01:01:35.905Z,1.80
2018-12-31T01:02:35.855Z,2.10
2018-12-31T01:03:35.816Z,2.00
2018-12-31T01:04:35.768Z,2.20
2018-12-31T01:05:35.726Z,1.70
2018-12-31T01:06:35.687Z,1.90
2018-12-31T01:07:35.645Z,2.10
2018-12-31T01:08:35.595Z,2.00
2018-12-31T01:09:35.555Z,1.80
2018-12-31T01:10:35.519Z,1.90
2018-12-31T01:11:35.468Z,1.80
2018-12-31T01:12:35.419Z,1.90
2018-12-31T01:13:35.379Z,2.10
2018-12-31T01:14:35.330Z,1.80
2018-12-31T01:15:35.292Z,2.10
2018-12-31T01:16:35.247Z,2.00
2018-12-31T01:17:35.204Z,2.00
2018-12-31T01:18:35.164Z,2.00
2018-12-31T01:19:35.117Z,2.10
2018-12-31T01:20:35.072Z,2.10
2018-12-31T01:21:35.030Z,2.00
2018-12-31T01:22:34.984Z,2.00
2018-12-31T01:23:34.942Z,2.00
2018-12-31T01:24:34.899Z,1.90
2018-12-31T01:25:34.855Z,2.10
2018-12-31T01:26:34.807Z,2.20
2018-12-31T01:27:34.778Z,1.90
2018-12-31T01:28:34.726Z,2.00
2018-12-31T01:29:34.682Z,1.90
2018-12-31T01:30:34.636Z,2.20
2018-12-31T01:31:34.595Z,2.00
2018-12-31T01:32:34.552Z,2.00
2018-12-31T01:33:34.507Z,2.10
2018-12-31T01:34:34.456Z,1.70
2018-12-31T01:35:34.419Z,2.00
2018-12-31T01:36:34.382Z,2.10
2018-12-31T01:37:34.340Z,1.90
2018-12-31T01:38:34.283Z,2.00
2018-12-31T01:39:34.244Z,1.90
2018-12-31T01:40:34.194Z,2.00
2018-12-31T01:41:34.161Z,2.20
2018-12-31T01:42:34.116Z,1.90
2018-12-31T01:43:34.072Z,1.80
2018-12-31T01:44:34.027Z,2.10
2018-12-31T01:45:33.984Z,2.00
2018-12-31T01:46:33.941Z,1.90
2018-12-31T01:47:33.894Z,2.10
2018-12-31T01:48:33.856Z,2.30
2018-12-31T01:49:33.810Z,2.10
2018-12-31T01:50:33.769Z,1.80
2018-12-31T01:51:33.723Z,2.00
2018-12-31T01:52:33.680Z,1.90
2018-12-31T01:53:33.635Z,1.90
2018-12-31T01:54:33.594Z,2.00
2018-12-31T01:55:33.548Z,1.90
2018-12-31T01:56:33.504Z,1.90
2018-12-31T01:57:33.466Z,2.30
2018-12-31T01:58:33.417Z,1.70
2018-12-31T01:59:33.377Z,2.00
2018-12-31T02:00:33.332Z,2.00
2018-12-31T02:01:33.287Z,1.90
2018-12-31T02:02:33.242Z,2.10
2018-12-31T02:03:33.201Z,2.00
2018-12-31T02:04:33.158Z,1.90
2018-12-31T02:05:33.113Z,2.10
2018-12-31T02:06:33.077Z,1.80
2018-12-31T02:07:33.036Z,2.00
2018-12-31T02:08:32.983Z,2.10
2018-12-31T02:09:32.944Z,1.70
2018-12-31T02:10:32.894Z,2.00
2018-12-31T02:11:32.850Z,2.00
2018-12-31T02:12:32.807Z,1.90
2018-12-31T02:13:32.844Z,1.80
2018-12-31T02:14:32.719Z,1.90
2018-12-31T02:15:32.674Z,1.60
2018-12-31T02:16:32.632Z,2.00
2018-12-31T02:17:32.597Z,2.20
2018-12-31T02:18:32.549Z,1.90
2018-12-31T02:19:32.512Z,2.00
2018-12-31T02:20:32.461Z,1.90
2018-12-31T02:21:32.426Z,2.40
2018-12-31T02:22:32.372Z,1.90
2018-12-31T02:23:32.330Z,2.00
2018-12-31T02:24:32.284Z,2.10
2018-12-31T02:25:32.247Z,2.00
2018-12-31T02:26:32.197Z,1.90
2018-12-31T02:27:32.158Z,2.00
2018-12-31T02:28:32.109Z,1.80
2018-12-31T02:29:32.076Z,2.00
2018-12-31T02:30:32.021Z,2.10
2018-12-31T02:31:31.982Z,2.20
2018-12-31T02:32:31.935Z,2.20
2018-12-31T02:33:31.900Z,1.90
2018-12-31T02:34:31.846Z,1.90
2018-12-31T02:35:31.805Z,2.10
2018-12-31T02:36:31.758Z,1.90
2018-12-31T02:37:31.723Z,2.00
2018-12-31T02:38:31.675Z,2.10
2018-12-31T02:39:31.718Z,2.20
2018-12-31T02:40:31.591Z,1.90
2018-12-31T02:41:31.541Z,2.00
2018-12-31T02:42:31.501Z,2.10
2018-12-31T02:43:31.456Z,2.00
2018-12-31T02:44:31.409Z,2.10
2018-12-31T02:45:31.370Z,2.10
2018-12-31T02:46:31.320Z,1.90
2018-12-31T02:47:31.298Z,1.90
2018-12-31T02:48:31.229Z,2.10
2018-12-31T02:49:31.188Z,2.00
2018-12-31T02:50:31.143Z,2.00
2018-12-31T02:51:31.113Z,1.70
2018-12-31T02:52:31.057Z,1.90
2018-12-31T02:53:31.018Z,2.30
2018-12-31T02:54:30.972Z,1.80
2018-12-31T02:55:30.930Z,2.00
2018-12-31T02:56:30.887Z,1.80
2018-12-31T02:57:30.850Z,2.30
2018-12-31T02:58:30.801Z,2.10
2018-12-31T02:59:30.749Z,1.90
2018-12-31T03:00:30.707Z,1.80
2018-12-31T03:01:30.665Z,2.00
2018-12-31T03:02:30.622Z,2.10
2018-12-31T03:03:30.576Z,2.20
2018-12-31T03:04:30.533Z,1.90
2018-12-31T03:05:30.494Z,1.90
2018-12-31T03:06:30.448Z,1.70
2018-12-31T03:07:30.410Z,2.10
2018-12-31T03:08:30.356Z,1.90
2018-12-31T03:09:30.310Z,2.10
2018-12-31T03:10:30.271Z,2.00
2018-12-31T03:11:30.222Z,1.90
2018-12-31T03:12:30.182Z,1.80
2018-12-31T03:13:30.276Z,1.90
2018-12-31T03:14:30.093Z,2.00
2018-12-31T03:15:30.046Z,1.90
2018-12-31T03:16:30.006Z,1.90
2018-12-31T03:17:29.958Z,2.10
2018-12-31T03:18:29.919Z,2.30
2018-12-31T03:19:29.878Z,2.00
2018-12-31T03:20:29.833Z,1.90
2018-12-31T03:21:29.801Z,1.70
2018-12-31T03:22:29.746Z,2.10
2018-12-31T03:23:29.700Z,2.10
2018-12-31T03:24:29.656Z,1.90
2018-12-31T03:25:29.660Z,2.00
2018-12-31T03:26:29.568Z,1.90
2018-12-31T03:27:29.538Z,1.90
2018-12-31T03:28:29.483Z,2.00
2018-12-31T03:29:29.438Z,1.90
2018-12-31T03:30:29.395Z,2.10
2018-12-31T03:31:29.354Z,2.00
2018-12-31T03:32:29.306Z,1.90
2018-12-31T03:33:29.261Z,2.10
2018-12-31T03:34:29.223Z,2.30
2018-12-31T03:35:29.173Z,2.10
2018-12-31T03:36:29.130Z,2.00
2018-12-31T03:37:29.080Z,2.00
2018-12-31T03:38:29.043Z,2.00
2018-12-31T03:39:29.016Z,1.90
2018-12-31T03:40:28.951Z,2.00
2018-12-31T03:41:28.908Z,2.10
2018-12-31T03:42:28.866Z,1.80
2018-12-31T03:43:28.816Z,2.10
2018-12-31T03:44:28.777Z,2.00
2018-12-31T03:45:28.735Z,2.10
2018-12-31T03:46:28.691Z,1.80
2018-12-31T03:47:28.663Z,1.80
2018-12-31T03:48:28.600Z,2.00
2018-12-31T03:49:28.563Z,1.80
2018-12-31T03:50:28.517Z,2.10
2018-12-31T03:51:28.465Z,2.00
2018-12-31T03:52:28.429Z,1.90
2018-12-31T03:53:28.382Z,1.90
2018-12-31T03:54:28.342Z,2.10
2018-12-31T03:55:28.296Z,1.90
2018-12-31T03:56:28.253Z,1.90
2018-12-31T03:57:28.223Z,2.10
2018-12-31T03:58:28.161Z,1.90
2018-12-31T03:59:28.123Z,1.80
2018-12-31T04:00:28.105Z,1.90
2018-12-31T04:01:28.036Z,2.10
2018-12-31T04:02:27.988Z,2.00
2018-12-31T04:03:27.944Z,2.00
2018-12-31T04:04:27.908Z,2.00
2018-12-31T04:05:27.859Z,1.90
2018-12-31T04:06:27.816Z,1.80
2018-12-31T04:07:27.769Z,1.80
2018-12-31T04:08:27.726Z,1.70
2018-12-31T04:09:27.682Z,2.10
2018-12-31T04:10:27.635Z,2.00
2018-12-31T04:11:27.588Z,1.80
2018-12-31T04:12:27.551Z,1.90
2018-12-31T04:13:27.514Z,1.80
2018-12-31T04:14:27.462Z,2.00
2018-12-31T04:15:27.418Z,2.00
2018-12-31T04:16:27.375Z,2.00
2018-12-31T04:17:27.331Z,1.80
2018-12-31T04:18:27.287Z,1.80
2018-12-31T04:19:27.249Z,1.80
2018-12-31T04:20:27.199Z,1.90
2018-12-31T04:21:27.155Z,1.90
2018-12-31T04:22:27.115Z,1.80
2018-12-31T04:23:28.732Z,1.90
2018-12-31T04:24:27.029Z,2.10
2018-12-31T04:25:26.979Z,2.00
2018-12-31T04:26:26.937Z,1.70
2018-12-31T04:27:26.891Z,1.80
2018-12-31T04:28:26.858Z,1.90
2018-12-31T04:29:26.805Z,1.80
2018-12-31T04:30:26.763Z,1.80
2018-12-31T04:31:26.716Z,1.90
2018-12-31T04:32:26.674Z,1.90
2018-12-31T04:33:26.630Z,1.70
2018-12-31T04:34:26.586Z,1.80
2018-12-31T04:35:26.575Z,1.60
2018-12-31T04:36:26.498Z,1.80
2018-12-31T04:37:26.465Z,1.90
2018-12-31T04:38:26.409Z,1.80
2018-12-31T04:39:26.366Z,1.80
2018-12-31T04:40:26.321Z,1.80
2018-12-31T04:41:26.274Z,1.70
2018-12-31T04:42:26.235Z,1.70
2018-12-31T04:43:26.191Z,1.80
2018-12-31T04:44:26.148Z,1.90
2018-12-31T04:45:26.101Z,2.00
2018-12-31T04:46:26.073Z,1.80
2018-12-31T04:47:26.010Z,1.80
2018-12-31T04:48:25.971Z,1.60
2018-12-31T04:49:25.927Z,2.00
2018-12-31T04:50:25.900Z,1.80
2018-12-31T04:51:25.834Z,1.50
2018-12-31T04:52:25.799Z,1.70
2018-12-31T04:53:25.744Z,1.70
2018-12-31T04:54:25.719Z,1.60
2018-12-31T04:55:25.661Z,1.70
2018-12-31T04:56:25.623Z,1.70
2018-12-31T04:57:25.576Z,1.80
2018-12-31T04:58:25.542Z,1.90
2018-12-31T04:59:25.492Z,1.60
2018-12-31T05:00:25.466Z,1.70
2018-12-31T05:01:25.404Z,1.50
2018-12-31T05:02:25.370Z,1.80
2018-12-31T05:03:25.317Z,1.90
2018-12-31T05:04:25.282Z,1.70
2018-12-31T05:05:25.227Z,1.90
2018-12-31T05:06:25.187Z,1.60
2018-12-31T05:07:25.138Z,1.60
2018-12-31T05:08:25.107Z,1.90
2018-12-31T05:09:25.052Z,1.90
2018-12-31T05:10:25.015Z,1.70
2018-12-31T05:11:24.965Z,1.70
2018-12-31T05:12:24.925Z,1.60
2018-12-31T05:13:24.876Z,1.50
2018-12-31T05:14:24.833Z,1.60
2018-12-31T05:15:24.787Z,1.70
2018-12-31T05:16:24.742Z,1.70
2018-12-31T05:17:24.702Z,1.90
2018-12-31T05:18:24.665Z,1.60
2018-12-31T05:19:24.613Z,1.60
2018-12-31T05:20:24.576Z,1.70
2018-12-31T05:21:24.525Z,1.70
2018-12-31T05:22:24.483Z,1.60
2018-12-31T05:23:24.438Z,1.50
2018-12-31T05:24:24.404Z,1.70
2018-12-31T05:25:24.352Z,1.40
2018-12-31T05:26:24.309Z,1.60
2018-12-31T05:27:24.262Z,1.50
2018-12-31T05:28:24.219Z,1.60
2018-12-31T05:29:24.173Z,1.80
2018-12-31T05:30:24.134Z,1.40
2018-12-31T05:31:24.088Z,1.70
2018-12-31T05:32:24.048Z,1.50
2018-12-31T05:33:24.005Z,1.50
2018-12-31T05:34:23.958Z,1.50
2018-12-31T05:35:23.958Z,1.60
2018-12-31T05:36:23.873Z,1.50
2018-12-31T05:37:23.829Z,1.70
2018-12-31T05:38:23.784Z,1.40
2018-12-31T05:39:23.735Z,1.60
2018-12-31T05:40:23.696Z,1.70
2018-12-31T05:41:23.655Z,1.50
2018-12-31T05:42:23.609Z,1.50
2018-12-31T05:43:23.568Z,1.70
2018-12-31T05:44:23.520Z,1.70
2018-12-31T05:45:23.556Z,1.90
2018-12-31T05:46:23.434Z,1.60
2018-12-31T05:47:23.388Z,1.50
2018-12-31T05:48:23.348Z,1.60
2018-12-31T05:49:23.298Z,1.40
2018-12-31T05:50:23.260Z,1.60
2018-12-31T05:51:23.216Z,1.70
2018-12-31T05:52:23.172Z,1.70
2018-12-31T05:53:23.124Z,1.40
2018-12-31T05:54:23.085Z,1.70
2018-12-31T05:55:23.077Z,1.80
2018-12-31T05:56:22.997Z,1.50
2018-12-31T05:57:22.950Z,1.60
2018-12-31T05:58:22.912Z,1.90
2018-12-31T05:59:22.869Z,1.90
2018-12-31T06:00:22.821Z,1.70
2018-12-31T06:01:22.779Z,1.60
2018-12-31T06:02:22.737Z,1.50
2018-12-31T06:03:22.692Z,1.60
2018-12-31T06:04:22.648Z,1.30
2018-12-31T06:05:22.604Z,1.50
2018-12-31T06:06:22.561Z,1.70
2018-12-31T06:07:22.518Z,1.90
2018-12-31T06:08:22.473Z,1.50
2018-12-31T06:09:22.430Z,1.40
2018-12-31T06:10:22.388Z,1.60
2018-12-31T06:11:22.342Z,1.40
2018-12-31T06:12:22.300Z,2.10
2018-12-31T06:13:22.256Z,1.50
2018-12-31T06:14:22.214Z,1.60
2018-12-31T06:15:22.164Z,1.60
2018-12-31T06:16:22.124Z,1.10
2018-12-31T06:17:22.084Z,1.50
2018-12-31T06:18:22.040Z,1.40
2018-12-31T06:19:21.996Z,1.40
2018-12-31T06:20:21.951Z,1.30
2018-12-31T06:21:21.909Z,1.40
2018-12-31T06:22:21.865Z,1.70
2018-12-31T06:23:21.821Z,1.30
2018-12-31T06:24:21.782Z,1.40
2018-12-31T06:25:21.735Z,1.70
2018-12-31T06:26:21.698Z,1.40
2018-12-31T06:27:21.643Z,1.20
2018-12-31T06:28:21.608Z,1.40
2018-12-31T06:29:21.568Z,1.30
2018-12-31T06:30:21.520Z,1.40
2018-12-31T06:31:21.487Z,1.40
2018-12-31T06:32:21.431Z,1.40
2018-12-31T06:33:21.391Z,1.60
2018-12-31T06:34:21.342Z,1.40
2018-12-31T06:35:21.303Z,1.50
2018-12-31T06:36:21.258Z,1.40
2018-12-31T06:37:21.216Z,1.40
2018-12-31T06:38:21.174Z,1.20
2018-12-31T06:39:21.128Z,1.50
2018-12-31T06:40:21.093Z,1.50
2018-12-31T06:41:21.040Z,1.20
2018-12-31T06:42:20.995Z,1.50
2018-12-31T06:43:20.954Z,1.50
2018-12-31T06:44:20.912Z,1.40
2018-12-31T06:45:20.865Z,1.60
2018-12-31T06:46:20.817Z,1.40
2018-12-31T06:47:20.776Z,1.50
2018-12-31T06:48:20.730Z,1.30
2018-12-31T06:49:20.690Z,1.20
2018-12-31T06:50:20.644Z,1.40
2018-12-31T06:51:20.599Z,1.40
2018-12-31T06:52:20.559Z,1.30
2018-12-31T06:53:20.516Z,1.30
2018-12-31T06:54:20.627Z,1.20
2018-12-31T06:55:20.429Z,1.40
2018-12-31T06:56:20.381Z,1.30
2018-12-31T06:57:20.355Z,1.20
2018-12-31T06:58:20.294Z,1.40
2018-12-31T06:59:20.255Z,1.30
2018-12-31T07:00:20.206Z,1.20
2018-12-31T07:01:20.169Z,1.30
2018-12-31T07:02:20.127Z,1.20
2018-12-31T07:03:20.080Z,1.40
2018-12-31T07:04:20.034Z,1.20
2018-12-31T07:05:19.995Z,1.30
2018-12-31T07:06:19.954Z,1.10
2018-12-31T07:07:19.907Z,1.10
2018-12-31T07:08:19.864Z,1.20
2018-12-31T07:09:19.820Z,1.20
2018-12-31T07:10:19.772Z,1.20
2018-12-31T07:11:19.734Z,1.30
2018-12-31T07:12:19.683Z,1.70
2018-12-31T07:13:19.654Z,1.40
2018-12-31T07:14:19.604Z,1.20
2018-12-31T07:15:19.563Z,1.60
2018-12-31T07:16:19.517Z,1.40
2018-12-31T07:17:19.474Z,1.40
2018-12-31T07:18:19.430Z,1.10
2018-12-31T07:19:19.386Z,1.30
2018-12-31T07:20:19.342Z,1.30
2018-12-31T07:21:19.300Z,1.30
2018-12-31T07:22:19.258Z,1.20
2018-12-31T07:23:19.215Z,0.90
2018-12-31T07:24:19.178Z,1.00
2018-12-31T07:25:19.129Z,1.20
2018-12-31T07:26:19.081Z,1.30
2018-12-31T07:27:19.041Z,1.10
2018-12-31T07:28:18.993Z,1.10
2018-12-31T07:29:18.954Z,1.10
2018-12-31T07:30:18.912Z,1.20
2018-12-31T07:31:18.867Z,1.60
2018-12-31T07:32:18.818Z,1.40
2018-12-31T07:33:18.781Z,1.20
2018-12-31T07:34:18.732Z,1.40
2018-12-31T07:35:18.740Z,1.80
2018-12-31T07:36:18.649Z,1.50
2018-12-31T07:37:18.601Z,1.60
2018-12-31T07:38:18.562Z,1.30
2018-12-31T07:39:18.517Z,1.90
2018-12-31T07:40:18.478Z,1.60
2018-12-31T07:41:18.432Z,1.50
2018-12-31T07:42:18.391Z,1.40
2018-12-31T07:43:18.345Z,1.40
2018-12-31T07:44:18.303Z,1.30
2018-12-31T07:45:18.259Z,1.60
2018-12-31T07:46:18.215Z,1.60
2018-12-31T07:47:18.171Z,1.70
2018-12-31T07:48:18.127Z,1.40
2018-12-31T07:49:18.085Z,2.10
2018-12-31T07:50:18.042Z,1.50
2018-12-31T07:51:17.997Z,1.70
2018-12-31T07:52:17.955Z,1.60
2018-12-31T07:53:17.912Z,1.70
2018-12-31T07:54:17.868Z,1.70
2018-12-31T07:55:17.823Z,1.50
2018-12-31T07:56:17.781Z,1.70
2018-12-31T07:57:17.741Z,1.50
2018-12-31T07:58:17.771Z,1.80
2018-12-31T07:59:17.651Z,1.80
2018-12-31T08:00:17.610Z,1.90
2018-12-31T08:01:17.569Z,1.90
2018-12-31T08:02:17.525Z,1.90
2018-12-31T08:03:17.483Z,2.00
2018-12-31T08:04:17.437Z,1.80
2018-12-31T08:05:17.413Z,1.80
2018-12-31T08:06:17.349Z,2.00
2018-12-31T08:07:17.296Z,1.70
2018-12-31T08:08:17.262Z,1.60
2018-12-31T08:09:17.219Z,1.90
2018-12-31T08:10:17.180Z,1.80
2018-12-31T08:11:17.144Z,1.60
2018-12-31T08:12:17.088Z,1.90
2018-12-31T08:13:17.049Z,1.70
2018-12-31T08:14:17.007Z,1.70
2018-12-31T08:15:16.960Z,1.70
2018-12-31T08:16:16.920Z,2.20
2018-12-31T08:17:16.868Z,2.00
2018-12-31T08:18:16.831Z,2.20
2018-12-31T08:19:16.781Z,2.80
2018-12-31T08:20:16.739Z,2.40
2018-12-31T08:21:16.699Z,2.20
2018-12-31T08:22:16.655Z,2.00
2018-12-31T08:23:16.607Z,2.30
2018-12-31T08:24:16.567Z,2.80
2018-12-31T08:25:16.518Z,2.00
2018-12-31T08:26:16.482Z,2.20
2018-12-31T08:27:16.433Z,2.00
2018-12-31T08:28:16.395Z,2.60
2018-12-31T08:29:16.376Z,2.10
2018-12-31T08:30:16.308Z,2.10
2018-12-31T08:31:16.293Z,2.00
2018-12-31T08:32:16.221Z,2.00
2018-12-31T08:33:16.178Z,2.50
2018-12-31T08:34:16.134Z,2.20
2018-12-31T08:35:16.087Z,2.00
2018-12-31T08:36:16.048Z,2.40
2018-12-31T08:37:15.999Z,2.50
2018-12-31T08:38:15.966Z,2.30
2018-12-31T08:39:15.920Z,2.20
2018-12-31T08:40:15.878Z,2.20
2018-12-31T08:41:15.830Z,2.20
2018-12-31T08:42:15.790Z,2.50
2018-12-31T08:43:15.743Z,2.10
2018-12-31T08:44:15.702Z,2.60
2018-12-31T08:45:15.657Z,2.10
2018-12-31T08:46:15.615Z,2.30
2018-12-31T08:47:15.568Z,2.10
2018-12-31T08:48:15.526Z,2.70
2018-12-31T08:49:15.482Z,2.50
2018-12-31T08:50:15.440Z,2.10
2018-12-31T08:51:15.395Z,2.80
2018-12-31T08:52:16.771Z,2.50
2018-12-31T08:53:15.328Z,2.60
2018-12-31T08:54:15.267Z,2.20
2018-12-31T08:55:15.220Z,2.40
2018-12-31T08:56:15.181Z,2.30
2018-12-31T08:57:15.133Z,2.40
2018-12-31T08:58:15.095Z,2.50
2018-12-31T08:59:15.046Z,2.00
2018-12-31T09:00:15.007Z,3.00
2018-12-31T09:01:14.963Z,2.60
2018-12-31T09:02:14.925Z,2.60
2018-12-31T09:03:14.876Z,2.50
2018-12-31T09:04:14.841Z,2.50
2018-12-31T09:05:14.787Z,2.50
2018-12-31T09:06:14.752Z,2.20
2018-12-31T09:07:14.702Z,2.60
2018-12-31T09:08:14.662Z,2.50
2018-12-31T09:09:14.648Z,2.60
2018-12-31T09:10:14.575Z,2.30
2018-12-31T09:11:14.532Z,2.40
2018-12-31T09:12:14.485Z,2.80
2018-12-31T09:13:14.443Z,2.30
2018-12-31T09:14:14.402Z,2.30
2018-12-31T09:15:14.768Z,2.20
2018-12-31T09:16:14.315Z,2.50
2018-12-31T09:17:14.273Z,2.40
2018-12-31T09:18:14.229Z,2.50
2018-12-31T09:19:14.185Z,2.30
2018-12-31T09:20:14.156Z,2.40
2018-12-31T09:21:14.103Z,2.60
2018-12-31T09:22:14.063Z,2.50
2018-12-31T09:23:14.019Z,2.50
2018-12-31T09:24:13.973Z,2.30
2018-12-31T09:25:13.925Z,2.20
2018-12-31T09:26:13.891Z,2.20
2018-12-31T09:27:13.839Z,2.30
2018-12-31T09:28:13.795Z,2.30
2018-12-31T09:29:13.756Z,2.80
2018-12-31T09:30:13.709Z,2.70
2018-12-31T09:31:13.664Z,2.40
2018-12-31T09:32:13.621Z,2.60
2018-12-31T09:33:13.581Z,2.20
2018-12-31T09:34:13.551Z,2.50
2018-12-31T09:35:13.499Z,2.50
2018-12-31T09:36:13.450Z,2.50
2018-12-31T09:37:13.408Z,2.40
2018-12-31T09:38:13.368Z,2.60
2018-12-31T09:39:13.320Z,2.50
2018-12-31T09:40:13.278Z,2.80
2018-12-31T09:41:13.235Z,2.10
2018-12-31T09:42:13.194Z,2.30
2018-12-31T09:43:13.147Z,2.50
2018-12-31T09:44:13.102Z,2.80
2018-12-31T09:45:13.060Z,2.50
2018-12-31T09:46:13.021Z,2.40
2018-12-31T09:47:12.975Z,2.30
2018-12-31T09:48:12.926Z,2.40
2018-12-31T09:49:12.888Z,2.20
2018-12-31T09:50:12.840Z,2.30
2018-12-31T09:51:12.801Z,2.90
2018-12-31T09:52:12.758Z,2.80
2018-12-31T09:53:12.989Z,2.90
2018-12-31T09:54:12.675Z,2.60
2018-12-31T09:55:12.633Z,2.50
2018-12-31T09:56:12.589Z,2.50
2018-12-31T09:57:12.543Z,2.40
2018-12-31T09:58:12.543Z,2.90
2018-12-31T09:59:12.456Z,2.70
2018-12-31T10:00:12.417Z,2.70
2018-12-31T10:01:12.376Z,2.80
2018-12-31T10:02:12.324Z,2.60
2018-12-31T10:03:12.280Z,2.40
2018-12-31T10:04:12.247Z,2.70
2018-12-31T10:05:12.197Z,2.60
2018-12-31T10:06:12.149Z,2.90
2018-12-31T10:07:12.113Z,2.80
2018-12-31T10:08:12.066Z,2.50
2018-12-31T10:09:12.107Z,2.70
2018-12-31T10:10:11.993Z,2.50
2018-12-31T10:11:11.937Z,2.80
2018-12-31T10:12:11.891Z,2.90
2018-12-31T10:13:11.846Z,2.80
2018-12-31T10:14:11.807Z,3.10
2018-12-31T10:15:11.763Z,2.60
2018-12-31T10:16:11.716Z,2.70
2018-12-31T10:17:11.678Z,2.90
2018-12-31T10:18:11.669Z,2.50
2018-12-31T10:19:11.589Z,2.70
2018-12-31T10:20:11.548Z,2.80
2018-12-31T10:21:11.505Z,2.70
2018-12-31T10:22:11.457Z,2.80
2018-12-31T10:23:11.419Z,2.90
2018-12-31T10:24:11.378Z,3.00
2018-12-31T10:25:11.331Z,2.80
2018-12-31T10:26:11.285Z,2.70
2018-12-31T10:27:11.283Z,2.70
2018-12-31T10:28:11.210Z,2.60
2018-12-31T10:29:11.164Z,2.90
2018-12-31T10:30:11.182Z,2.50
2018-12-31T10:31:11.078Z,2.70
2018-12-31T10:32:11.036Z,2.80
2018-12-31T10:33:10.993Z,3.00
2018-12-31T10:34:10.944Z,3.10
2018-12-31T10:35:10.902Z,2.70
2018-12-31T10:36:10.870Z,2.50
2018-12-31T10:37:10.817Z,3.00
2018-12-31T10:38:10.769Z,2.80
2018-12-31T10:39:10.891Z,3.10
2018-12-31T10:40:10.684Z,2.60
2018-12-31T10:41:10.650Z,2.90
2018-12-31T10:42:10.601Z,3.10
2018-12-31T10:43:10.557Z,2.70
2018-12-31T10:44:10.515Z,2.80
2018-12-31T10:45:10.473Z,2.70
2018-12-31T10:46:10.435Z,2.50
2018-12-31T10:47:10.390Z,2.50
2018-12-31T10:48:10.464Z,3.00
2018-12-31T10:49:10.296Z,2.90
2018-12-31T10:50:10.399Z,2.60
2018-12-31T10:51:10.206Z,2.60
2018-12-31T10:52:10.167Z,2.70
2018-12-31T10:53:10.123Z,2.60
2018-12-31T10:54:10.077Z,3.20
2018-12-31T10:55:10.038Z,2.80
2018-12-31T10:56:09.995Z,3.30
2018-12-31T10:57:09.947Z,3.40
2018-12-31T10:58:09.909Z,2.90
2018-12-31T10:59:09.866Z,2.80
2018-12-31T11:00:09.823Z,2.60
2018-12-31T11:01:09.778Z,2.80
2018-12-31T11:02:09.738Z,3.20
2018-12-31T11:03:09.688Z,2.90
2018-12-31T11:04:09.648Z,2.60
2018-12-31T11:05:09.652Z,2.60
2018-12-31T11:06:09.564Z,2.80
2018-12-31T11:07:09.567Z,3.00
2018-12-31T11:08:10.585Z,3.50
2018-12-31T11:09:09.464Z,2.90
2018-12-31T11:10:09.392Z,2.90
2018-12-31T11:11:09.349Z,2.80
2018-12-31T11:12:09.305Z,3.00
2018-12-31T11:13:09.261Z,3.10
2018-12-31T11:14:09.267Z,2.80
2018-12-31T11:15:09.176Z,3.00
2018-12-31T11:16:09.131Z,2.70
2018-12-31T11:17:09.087Z,2.80
2018-12-31T11:18:09.048Z,3.00
2018-12-31T11:19:08.999Z,2.80
2018-12-31T11:20:08.959Z,2.90
2018-12-31T11:21:08.917Z,2.90
2018-12-31T11:22:08.874Z,2.90
2018-12-31T11:23:08.827Z,3.00
2018-12-31T11:24:08.879Z,2.90
2018-12-31T11:25:09.835Z,3.00
2018-12-31T11:26:08.845Z,2.90
2018-12-31T11:27:08.672Z,2.90
2018-12-31T11:28:08.614Z,2.70
2018-12-31T11:29:08.572Z,2.80
2018-12-31T11:30:08.575Z,3.00
2018-12-31T11:31:08.486Z,3.10
2018-12-31T11:32:08.522Z,3.00
2018-12-31T11:33:08.403Z,3.20
2018-12-31T11:34:08.358Z,3.30
2018-12-31T11:35:08.316Z,3.20
2018-12-31T11:36:08.429Z,3.10
2018-12-31T11:37:08.417Z,2.90
2018-12-31T11:38:08.577Z,3.00
2018-12-31T11:39:08.141Z,3.20
2018-12-31T11:40:08.100Z,3.20
2018-12-31T11:41:08.056Z,3.10
2018-12-31T11:42:08.010Z,3.10
2018-12-31T11:43:08.053Z,2.90
2018-12-31T11:44:07.938Z,3.10
2018-12-31T11:45:07.879Z,3.30
2018-12-31T11:46:07.840Z,3.00
2018-12-31T11:47:07.794Z,3.20
2018-12-31T11:48:07.751Z,3.00
2018-12-31T11:49:07.710Z,3.10
2018-12-31T11:50:07.666Z,3.10
2018-12-31T11:51:07.678Z,3.40
2018-12-31T11:52:07.579Z,3.20
2018-12-31T11:53:07.534Z,3.20
2018-12-31T11:54:07.493Z,3.20
2018-12-31T11:55:07.449Z,3.50
2018-12-31T11:56:07.409Z,3.40
2018-12-31T11:57:07.365Z,3.10
2018-12-31T11:58:07.320Z,3.30
2018-12-31T11:59:07.279Z,3.20
2018-12-31T12:00:07.235Z,3.10
2018-12-31T12:01:07.197Z,2.80
2018-12-31T12:02:07.149Z,3.20
2018-12-31T12:03:07.109Z,3.70
2018-12-31T12:04:07.062Z,3.50
2018-12-31T12:05:07.019Z,4.90
2018-12-31T12:06:06.981Z,3.80
2018-12-31T12:07:06.935Z,4.40
2018-12-31T12:08:06.891Z,4.50
2018-12-31T12:09:06.847Z,4.60
2018-12-31T12:10:06.802Z,4.20
2018-12-31T12:11:06.764Z,4.40
2018-12-31T12:12:06.716Z,4.50
2018-12-31T12:13:06.679Z,4.40
2018-12-31T12:14:06.633Z,4.60
2018-12-31T12:15:06.589Z,5.30
2018-12-31T12:16:06.548Z,4.40
2018-12-31T12:17:06.503Z,4.60
2018-12-31T12:18:06.454Z,4.20
2018-12-31T12:19:06.417Z,4.70
2018-12-31T12:20:06.373Z,4.20
2018-12-31T12:21:06.330Z,4.70
2018-12-31T12:22:06.289Z,4.30
2018-12-31T12:23:06.247Z,4.20
2018-12-31T12:24:06.199Z,4.50
2018-12-31T12:25:06.161Z,4.60
2018-12-31T12:26:06.116Z,4.70
2018-12-31T12:27:06.123Z,4.60
2018-12-31T12:28:06.031Z,5.10
2018-12-31T12:29:05.988Z,4.80
2018-12-31T12:30:05.945Z,4.60
2018-12-31T12:31:05.900Z,4.90
2018-12-31T12:32:05.858Z,4.80
2018-12-31T12:33:05.811Z,5.10
2018-12-31T12:34:05.775Z,4.50
2018-12-31T12:35:05.731Z,5.00
2018-12-31T12:36:05.686Z,5.00
2018-12-31T12:37:05.642Z,5.30
2018-12-31T12:38:05.599Z,4.70
2018-12-31T12:39:05.556Z,5.30
2018-12-31T12:40:05.513Z,4.70
2018-12-31T12:41:05.469Z,4.80
2018-12-31T12:42:05.428Z,4.80
2018-12-31T12:43:05.393Z,5.00
2018-12-31T12:44:05.352Z,4.80
2018-12-31T12:45:05.299Z,5.00
2018-12-31T12:46:05.256Z,5.30
2018-12-31T12:47:05.215Z,4.80
2018-12-31T12:48:05.169Z,4.50
2018-12-31T12:49:05.124Z,4.50
2018-12-31T12:50:05.083Z,5.00
2018-12-31T12:51:05.038Z,5.00
2018-12-31T12:52:04.997Z,4.90
2018-12-31T12:53:04.953Z,4.80
2018-12-31T12:54:04.915Z,4.80
2018-12-31T12:55:04.865Z,4.70
2018-12-31T12:56:04.825Z,4.90
2018-12-31T12:57:04.781Z,5.30
2018-12-31T12:58:04.743Z,4.80
2018-12-31T12:59:04.697Z,4.80
2018-12-31T13:00:04.656Z,5.10
2018-12-31T13:01:04.610Z,5.10
2018-12-31T13:02:04.567Z,5.20
2018-12-31T13:03:04.520Z,5.30
2018-12-31T13:04:04.486Z,5.50
2018-12-31T13:05:04.457Z,5.70
2018-12-31T13:06:04.394Z,5.50
2018-12-31T13:07:04.416Z,5.40
2018-12-31T13:08:04.311Z,5.10
2018-12-31T13:09:04.268Z,5.70
2018-12-31T13:10:04.224Z,5.80
2018-12-31T13:11:04.179Z,5.90
2018-12-31T13:12:04.137Z,5.60
2018-12-31T13:13:04.091Z,5.40
2018-12-31T13:14:04.052Z,5.90
2018-12-31T13:15:04.011Z,6.10
2018-12-31T13:16:03.963Z,5.40
2018-12-31T13:17:03.917Z,6.20
2018-12-31T13:18:03.876Z,6.20